Terminal Aerodrome Forecast
Issued by NWS Shreveport, LA

Home | Current Version | Previous Version | Text Only | Print | Product List | Glossary On
Versions: 1 2 3 4 5 6 7 8 9 10 11 12 13 14 15 16 17 18 19
724
FTUS44 KSHV 301141
TAFTXK
TAF
KTXK 301141Z 3012/0112 23012KT P6SM VCSH FEW015 SCT060 BKN080
     FM301500 23012G18KT P6SM BKN090
     FM301700 24015G22KT P6SM SCT110 SCT250
     FM301900 24018G27KT P6SM SCT050
     FM010400 23015G23KT P6SM SKC
     FM010700 24012KT P6SM SKC=

USA.gov is the U.S. government's official web portal to all federal, state and local government web resources and services.